Terminal Aerodrome Forecast
Issued by NWS

Home | Current Version | Previous Version | Graphics & Text | Print | Product List | Glossary On
Versions: 1 2 3 4 5 6 7 8 9 10 11 12 13 14 15 16 17 18
000
FTUS43 KGRB 271137
TAFCWA
TAF
KCWA 271137Z 2712/2812 11006KT P6SM SCT040 OVC100
      TEMPO 2713/2715 -SHRA BKN040
     FM271700 12008G15KT P6SM VCSH BKN050 OVC100
      TEMPO 2717/2721 4SM -SHRA BR OVC035
     FM280000 14006KT P6SM VCSH SCT020 OVC035
     FM280300 13005KT 4SM BR VCSH BKN012 OVC020
      TEMPO 2804/2808 2SM -SHRA BR BKN006
     FM280800 12004KT 2SM BR VCSH BKN004 OVC020=

USA.gov is the U.S. government's official web portal to all federal, state and local government web resources and services.